cliquez pour ajouter le site Runraid à vos favoris  English version (google)  Retour à l'accueil Ecrire à l'auteur du site Runraid : Michel Jourdan



Les prochaines courses


Les derniers résultats

cliquez pour visualiser la page complète relatant la chronologie des éruptions du Piton de la Fournaise
éruptions Piton de la Fournaise


Ile de La Réunion

 Diagonale des Fous 

Nouveautés du site

Ecrire au créateur du site : Michel Jourdan
Contact


2016-06-11 - Foulées Boucan Canot

Pour consulter le palmarès d'un coureur, un clic sur son nom !

Vous avez des remarques, corrections, ... sur ces résultats , un clic sur --> pour me transmettre toute information concernant les classements


Foulées Boucan Canot - 2016 : classement des 200 finishers
Place Nom Temps Cat. Club Sexe Clt/cat.
Place Nom Temps Cat. Club Sexe Clt/cat.
1 VASSOR Cedric 00:40:35 SEM - M 752
2 CAUDRON GUILLAUME 00:40:41 SEM - M 577
3 GALAIS GILBERT 00:40:44 SEM - M 621
4 LIBELLE JOVANY 00:40:55 SEM CAPOSS M 670
5 COURTEAUD Olivier 00:40:57 V1M - M 1 V1M 584
6 DUCHEMANE Samuel 00:41:33 SEM - M 5 SEM 603
7 BARLIEU Ronan 00:41:40 ESM Acp M 1 ESM 561
8 GAUTHIER JULES 00:42:20 ESM - M 2 ESM 778
9 TERRENTROY Guillaume 00:43:00 ESM - M 3 ESM 734
10 BOULANGER Fabrice 00:43:06 SEM - M 6 SEM 568
11 THOUVENIN Paco 00:43:10 ESM - M 4 ESM 738
12 GAUTHIER OLIVIER 00:43:13 V1M - M 2 V1M 779
13 TOIRON cedric 00:43:17 SEM - M 7 SEM 740
14 LORRAINE JEAN SULLY 00:43:23 V1M ACSP M 3 V1M 674
15 JUVENAL joel 00:43:25 SEM caposs M 8 SEM 654
16 ULRICI Robin 00:43:33 ESM Dominicaine A M 5 ESM 747
17 GALTIER Jean Eric 00:43:40 V1M - M 4 V1M 623
18 ROBERT Emmanuel 00:44:36 SEM - M 9 SEM 714
19 VEFOUR Stephane 00:45:02 SEM Team mieltonia M 10 SEM 753
20 LOUP Philippe 00:45:21 SEM - M 11 SEM 677
21 CENDRIER HENRY PAUL 00:45:21 SEM - M 12 SEM 578
22 BAILLIF Sebastien 00:45:23 SEM ouesttrail reunion M 13 SEM 558
23 PAYET christophe roger 00:45:29 V2M capc M 1 V2M 697
24 LEBON stephane 00:45:40 V1M - M 5 V1M 667
25 GASTRIN Alanne 00:46:38 ESM Ac possession M 6 ESM 625
26 FORTIN pascal 00:47:46 V1M - M 6 V1M 616
27 LAURET Nicolas 00:48:07 ESM BNA M 7 ESM 665
28 HELMER GUILLAUME 00:48:27 ESM - M 8 ESM 643
29 LACOUTURE Loic 00:48:28 CAM - M 1 CAM 657
30 BREZE JULIEN 00:48:28 SEM - M 14 SEM 572
31 LON MON POY ERIC 00:48:39 V1M - M 7 V1M 672
32 PAYET Patrick 00:48:43 V1M - M 8 V1M 701
33 ANDICHY THIERRY 00:48:49 V1M - M 9 V1M 556
34 JEANNEAU willy 00:48:53 V1M - M 10 V1M 651
35 TATEL Erickson 00:49:11 SEM - M 15 SEM 732
36 ACHELOIS ANGELIN 00:49:14 V2M - M 2 V2M 770
37 CUENOT HUGO 00:49:17 ESM - M 9 ESM 780
38 SOUBOU richelet 00:49:18 V1M - M 11 V1M 726
39 DOLPHIN Aldo 00:49:23 SEM - M 16 SEM 602
40 KONDOKI jean claude 00:49:38 V2M - M 3 V2M 656
41 ENGUEHARD MICHEL 00:49:43 V2M CAPOSS M 4 V2M 607
42 SINCERE Pascal 00:49:57 V1M - M 12 V1M 722
43 RAMAYE Alexandre 00:50:03 CAM BDN st Paul Sports M 2 CAM 709
44 AURE YVON 00:50:12 V2M - M 5 V2M 788
45 VANBAELINGHEM nicolas 00:50:29 SEM - M 17 SEM 751
46 TECHER Frederic 00:50:43 SEM - M 18 SEM 733
47 TURBAN Jean Michel 00:51:36 SEM - M 19 SEM 744
48 BLANCHON Joel 00:51:36 V1M - M 13 V1M 565
49 TROCA Luidgi 00:52:11 SEM - M 20 SEM 742
50 LAIBE IVANE 00:52:13 V2M - M 6 V2M 659
51 JEAN BART GERARD 00:52:20 V2M - M 7 V2M 768
52 LAU YAM ESPEDIT 00:52:32 V3M - M 1 V3M 787
53 SUF KHALEED 00:52:33 SEM - M 21 SEM 727
54 ALTHIERY CORINE 00:52:41 V1F - F 1ere F 769
55 GARDEAT REGIS 00:53:01 V2M - M 8 V2M 767
56 REMY Marc Antoine 00:53:02 ESM - M 10 ESM 712
57 RECHE Bernard 00:53:05 V1M - M 14 V1M 711
58 DARENCOURT Francois 00:53:16 V2M ACC M 9 V2M 591
59 SANTUNE Philippe 00:53:30 V1M - M 15 V1M 719
60 IBRAHIMA daniel 00:53:36 V1M - M 16 V1M 649
61 DEPECHE YANN 00:53:49 V1M - M 17 V1M 599
62 PERSEE Gidexe 00:53:53 V1M - M 18 V1M 703
63 WAN TAN YUE Christine 00:53:53 V1F Deniv F 2eme F 760
64 ALLAIS Alicia 00:53:55 SEF - F 3eme F / 1 SEF 555
65 VOLTIGE johan 00:54:02 SEM - M 22 SEM 758
66 BITROU GAILLARD ANNE 00:54:05 V1F DENIV F 4eme F / 3 V1F 664
67 HUSCENOT Laura 00:54:15 SEF - F 5eme F / 2 SEF 648
68 PALCY dominique 00:54:20 SEM COSPI M 23 SEM 695
69 DIEUDONNE JULIEN 00:54:24 SEM - M 24 SEM 600
70 HEGOBURU JULIE 00:54:30 SEM - M 25 SEM 642
71 HIRIART peyo 00:54:31 SEM - M 26 SEM 645
72 ANGAMA ISABELLE 00:54:50 V1F CASL F 6eme F / 4 V1F 781
73 ETOUARIA cedric 00:54:51 SEM - M 27 SEM 608
74 DAMBREVILLE FABRICE 00:55:27 SEM - M 28 SEM 590
75 MARION eugene 00:55:32 V1M - M 19 V1M 686
76 ULRICI Ludovic 00:55:34 ESM - M 11 ESM 749
77 AIT BOUNOUR SMAIL 00:55:40 V1M - M 20 V1M 553
78 MAILLOT SERGE 00:55:45 V3M - M 2 V3M 682
79 SOILIHI ahmed 00:55:53 V1M - M 21 V1M 724
80 GULTEKIN Oktay 00:56:06 SEM ACSP M 29 SEM 641
81 LEGROS JEAN FRANCOIS 00:56:15 V2M - M 10 V2M 668
82 BOYER ABEL TEMPLE 00:56:39 V1F - F 7eme F / 5 V1F 772
83 LOUISE Jovani 00:56:41 SEM - M 30 SEM 676
84 LATCHOUMY Freddy 00:56:42 V1M - M 22 V1M 663
85 GUILTAT SEBASTIEN 00:56:55 V1M - M 23 V1M 638
86 ENCATASSAMY VIDJAi 00:56:56 CAM - M 3 CAM 606
87 MERLO ignace 00:57:15 V2M - M 11 V2M 687
88 AGUILAR Aurelien 00:57:18 SEM - M 31 SEM 551
89 MAGERY Jean Noel 00:57:29 V1M ACC M 24 V1M 681
90 CRESPIN eddy 00:57:35 V1M - M 25 V1M 586
91 TATE DENIS 00:57:41 V2M - M 12 V2M 731
92 CADJEE Hassen 00:57:47 SEM - M 32 SEM 783
93 BOUDIN Frederic 00:57:54 V1M - M 26 V1M 567
94 MUNOS Lionel 00:58:01 V1M - M 27 V1M 692
95 BENARD Catherine 00:58:12 V1F - F 8eme F / 6 V1F 562
96 GRONDIN Armande 00:58:13 SEF Run Odyssea F 9eme F / 3 SEF 635
97 GAILLARD Julia 00:58:15 SEF ACSP F 10eme F / 4 SEF 620
98 ELIZEON Stephanie 00:58:22 SEF ACSP F 11eme F / 5 SEF 605
99 GOUIRY Jean Claude 00:58:27 V3M - M 3 V3M 632
100 PHILIPPE FABIEN 00:58:39 V2M C A S L M 13 V2M 704
101 MAIRE Benjamin 00:58:54 SEM - M 33 SEM 683
102 LAHISAFY JEROME 00:58:57 V1M - M 28 V1M 658
103 WADAANE ramzi 00:59:11 SEM - M 34 SEM 759
104 CHAVAROCHE MARIE 00:59:25 SEF - F 12eme F / 6 SEF 776
105 GENDRE Nicolas 00:59:47 SEM - M 35 SEM 627
106 BRIAL Pierre 01:00:07 V1M - M 29 V1M 573
107 ZITTE Jean Bruno 01:00:24 V1M - M 30 V1M 761
108 ALEX jonathan 01:00:31 SEM - M 36 SEM 554
109 NASSIBOU GEORGES MARIE 01:00:45 V2M - M 14 V2M 693
110 SAUTRON Jean Jacques 01:00:56 V1M - M 31 V1M 720
111 GIRAUD PIERRE 01:00:56 SEM - M 37 SEM 771
112 PAYET Sabine 01:00:59 V1F - F 13eme F / 7 V1F 699
113 CHOPINET jean bernard 01:01:02 V1M - M 32 V1M 582
114 MARC Sandrine 01:01:04 V1F - F 14eme F / 8 V1F 684
115 DE SEZE Ludovic 01:01:06 V1M - M 33 V1M 595
116 GODELUCK Anais 01:01:06 SEF - F 15eme F / 7 SEF 630
117 MONDON Gaelle 01:01:28 SEF - F 16eme F / 8 SEF 688
118 SITALAPRESAD Christine 01:01:28 V1F run ODYSSEA F 17eme F / 9 V1F 723
119 FLAMENT Laurence 01:01:29 V1F ACSP F 18eme F / 10 V1F 614
120 GALMICHE MAGALIE 01:01:38 V1F - F 19eme F / 11 V1F 622
121 LALLEMENT MARINE 01:01:54 SEF - F 20eme F / 9 SEF 777
122 KIEVITS Alyssa 01:01:58 SEF - F 21eme F / 10 SEF 655
123 DE BEAUREGARD Marie 01:02:23 SEF ACSP F 22eme F / 11 SEF 593
124 LARDAL JOHANN ERIC 01:02:26 SEM - M 38 SEM 661
125 HOAREAU Marie Veronique 01:02:39 V1F - F 23eme F / 12 V1F 785
126 MORILHAT Fabrice 01:02:56 V1M - M 34 V1M 690
127 MORILHAT Margot 01:02:56 CAF - F 24eme F / 1 CAF 691
128 PAYET eric patrice 01:03:19 V1M - M 35 V1M 698
129 BOUVIER LOUIS 01:03:21 V2M - M 15 V2M 570
130 DEGRENDEL benoit 01:03:24 V1M - M 36 V1M 596
131 HUBERT Doric 01:03:57 ESM - M 12 ESM 647
132 GRONDIN Thibault 01:04:06 ESM - M 13 ESM 634
133 FRANCOISE Matthieu 01:04:13 SEM - M 39 SEM 619
134 BRUAS Elodie 01:04:13 SEF - F 25eme F / 12 SEF 575
135 ROMEDER Florence 01:04:14 V2F - F 26eme F / 1 V2F 717
136 CHICHERY Mathieu 01:04:28 V1M - M 37 V1M 580
137 ULRICI Frederique 01:04:34 V1F - F 27eme F / 13 V1F 748
138 BROSSIER marine 01:05:00 SEF - F 28eme F / 13 SEF 574
139 REUZe Mathieu 01:05:12 SEM - M 40 SEM 713
140 TURBAN Stephanie 01:05:47 SEF - F 29eme F / 14 SEF 745
141 LEMAIRE ANITA 01:05:58 V2F - F 30eme F / 2 V2F 669
142 GIMMIG AUDREY 01:05:58 V1F - F 31eme F / 14 V1F 628
143 ANDRIAMORA niry 01:06:50 SEM - M 41 SEM 557
144 VERICEL Yannick 01:07:31 SEM - M 42 SEM 755
145 HOAREAU BEATRICE 01:07:44 V1F - F 32eme F / 15 V1F 646
146 BRANQUART Olivier 01:07:46 V1M - M 38 V1M 571
147 FOUCTEAU VERONIQUE 01:07:49 SEF CSSDA F 33eme F / 15 SEF 617
148 SAINT LAMBERT Guy 01:07:49 V2M - M 16 V2M 718
149 QUONIAM CELINE 01:07:55 V1F - F 34eme F / 16 V1F 707
150 BARET Gerald 01:08:35 SEM - M 43 SEM 560
151 BARBOTTIN elise 01:09:06 SEF - F 35eme F / 16 SEF 559
152 GARCIA Laura 01:09:11 SEF - F 36eme F / 17 SEF 624
153 MORETTI Julie 01:09:12 SEF - F 37eme F / 18 SEF 689
154 ROLAND Didier 01:09:14 V2M - M 17 V2M 789
155 GODELUCK Fleur 01:09:43 SEF - F 38eme F / 19 SEF 629
156 VERGOZ Cedric 01:09:43 SEM - M 44 SEM 754
157 CRESPIN laetitia 01:10:17 V1F - F 39eme F / 17 V1F 585
158 LANDAIS JACKSON 01:10:31 V2M - M 18 V2M 660
159 TURQUET ANNE 01:10:50 V1F - F 40eme F / 18 V1F 746
160 DAFREVILLE Kelly 01:11:14 SEF - F 41eme F / 20 SEF 587
161 AH SANE Eddy 01:11:20 SEM - M 45 SEM 552
162 COURDAL YASMINA 01:11:27 V1F BNA F 42eme F / 19 V1F 583
163 LUCIAN EDITH 01:11:31 V2F - F 43eme F / 3 V2F 678
164 CANON JOCELYNE 01:11:40 V1F - F 44eme F / 20 V1F 576
165 TAILOU bruno 01:11:40 V2M - M 19 V2M 728
166 LOUISE Andree Marie 01:12:27 SEF Acsp F 45eme F / 21 SEF 675
167 SORRES alexandre 01:12:32 V1M - M 39 V1M 725
168 PAYET Philippe 01:12:40 SEM - M 46 SEM 700
169 BOURG Delphine 01:12:53 SEF - F 46eme F / 22 SEF 569
170 PITOU jeremy 01:13:02 SEM - M 47 SEM 705
171 THIBAULT Pierre 01:13:03 V1M - M 40 V1M 736
172 THIBAULT Aude 01:13:03 SEF - F 47eme F / 23 SEF 737
173 GRONDIN Loic 01:13:11 SEM - M 48 SEM 636
174 DALLEAU RACHEL 01:13:34 CAF acsp F 48eme F / 2 CAF 589
175 DAOUT cyril 01:13:36 V1M - M 41 V1M 790
176 PAYET Diane 01:13:40 SEF - F 49eme F / 24 SEF 702
177 RAECKELBOOM ANNE 01:14:02 SEF - F 50eme F / 25 SEF 708
178 RAMSAMY ANNABELLE Laure 01:14:09 SEF - F 51eme F / 26 SEF 710
179 LINARES Aurelien 01:14:10 SEM - M 49 SEM 671
180 GUGLIELMACCI TROADEC STEPHANE 01:14:14 V1F ACSP F 52eme F / 21 V1F 637
181 JISTA Magali 01:14:19 SEF - F 53eme F / 27 SEF 652
182 LUSBARONIAN Sandrine 01:14:25 V1F Run Odyssea F 54eme F / 22 V1F 679
183 HOAREAU ELISA 01:14:28 ESF - F 55eme F / 1 ESF 784
184 ROBERT VADIM 01:14:29 SEM - M 50 SEM 786
185 GUINET FRANCOIS 01:14:40 V1M - M 42 V1M 639
186 DAUCHEZ TYPHAINE 01:14:52 V1F - F 56eme F / 23 V1F 592
187 DELEFLIE Caroline 01:14:53 SEF - F 57eme F / 28 SEF 597
188 ALLAIN CECILE 01:16:03 V1F - F 58eme F / 24 V1F 782
189 DALLEAU MARIE CATHERINE 01:18:00 V1F ACSP F 59eme F / 25 V1F 588
190 GOUACHE SARAH 01:18:56 SEF - F 60eme F / 29 SEF 631
191 EUPHRASIE ANNICK 01:20:06 V2F - F 61eme F / 4 V2F 609
192 DE LORENZO MURIEL 01:20:13 V1F - F 62eme F / 26 V1F 594
193 DELRUYTER Julie 01:21:16 SEF RUN ODYSSEA F 63eme F / 30 SEF 598
194 TARES SALVADOR CAROLINA 01:22:26 SEF - F 64eme F / 31 SEF 730
195 VACHER Sylvie 01:22:28 V1F - F 65eme F / 27 V1F 750
196 LAROCHE Sebastien 01:24:11 V1M - M 43 V1M 662
197 BESSIERE Christine 01:24:11 V2F - F 66eme F / 5 V2F 563
198 VOLTIGE LAURENT 01:25:08 SEM - M 51 SEM 757
199 GUIRAUD Jean 01:28:29 V3M - M 4 V3M 640
200 CHOMON alize 01:30:44 ESF - F 67eme F / 2 ESF 581


ReferencementCe site est listé dans la catégorie Sport : Sports extrêmes Dictionnaire
| Accueil | La Réunion  Vue du ciel | Météo | Cyclones | Volcan | Cirques de Mafate , Cilaos , Salazie | Photos Randonnées | Randonnées Réunion: Randos Espiègle , Courses montagne | Diagonale des Fous |  Marathon des Sables | Voyages Les stats du site | Fonds écran | Plan du site | Blog de runraid | Galerie photos Sport Réunion |